Time;durP1;ratioP1;P1;durP2;ratioP2;P2;SDS_P1;SDS_P2;PMS_P1;PMS_P2;Temp;Humidity;BMP_temperature;BMP_pressure;BME280_temperature;BME280_humidity;BME280_pressure;Samples;Min_cycle;Max_cycle;Signal;HPM_P1;HPM_P2
2023/01/24 00:00:32;;;;;;;2.28;2.08;;;;;;;16.69;51.81;104017.09;4866715;29;20061;-80
2023/01/24 00:02:57;;;;;;;3.20;2.40;;;;;;;16.68;52.17;104012.72;4834901;29;20038;-80
2023/01/24 00:05:23;;;;;;;2.95;2.30;;;;;;;16.68;51.89;104015.31;4866729;29;20041;-80
2023/01/24 00:07:48;;;;;;;2.75;2.30;;;;;;;16.67;52.07;104010.94;4867222;29;20044;-80
2023/01/24 00:10:13;;;;;;;2.38;2.17;;;;;;;16.66;52.08;104003.97;4850390;29;20042;-80
2023/01/24 00:12:39;;;;;;;2.58;2.10;;;;;;;16.66;51.88;104010.06;4834555;29;20576;-79
2023/01/24 00:15:05;;;;;;;2.35;1.90;;;;;;;16.66;51.96;104010.06;4865868;29;20049;-79
2023/01/24 00:17:30;;;;;;;2.78;2.20;;;;;;;16.66;51.98;104004.84;4865401;29;20049;-79
2023/01/24 00:19:55;;;;;;;2.40;2.08;;;;;;;16.66;52.03;104003.97;4850228;29;20053;-80
2023/01/24 00:22:21;;;;;;;2.78;2.40;;;;;;;16.65;51.96;103995.25;4849985;29;20045;-79
2023/01/24 00:24:48;;;;;;;2.60;2.30;;;;;;;16.65;51.70;103991.75;4865494;29;20042;-80
2023/01/24 00:27:13;;;;;;;2.58;2.03;;;;;;;16.64;51.77;103992.59;4865479;29;20496;-81
2023/01/24 00:29:39;;;;;;;2.33;2.13;;;;;;;16.64;51.85;103985.69;4851277;29;20052;-82
2023/01/24 00:32:04;;;;;;;2.83;2.50;;;;;;;16.64;52.05;103990.88;4851007;29;20046;-81
2023/01/24 00:34:30;;;;;;;2.60;2.40;;;;;;;16.63;51.83;103983.00;4835190;29;20044;-82
2023/01/24 00:36:58;;;;;;;3.17;2.03;;;;;;;16.63;51.90;103983.00;4835167;29;20037;-81
2023/01/24 00:39:23;;;;;;;2.63;2.20;;;;;;;16.63;51.89;103999.50;4865481;29;20033;-83
2023/01/24 00:41:49;;;;;;;2.10;1.90;;;;;;;16.63;51.93;103996.00;4865822;29;20053;-83
2023/01/24 00:44:14;;;;;;;2.42;2.20;;;;;;;16.63;51.75;103996.00;4850600;29;20045;-82
2023/01/24 00:46:40;;;;;;;2.75;2.40;;;;;;;16.63;51.90;103990.81;4850421;29;20078;-81
2023/01/24 00:49:06;;;;;;;4.15;2.20;;;;;;;16.62;51.96;103989.03;4849148;29;20041;-80
2023/01/24 00:51:31;;;;;;;2.88;2.38;;;;;;;16.62;51.73;103983.84;4865055;29;20042;-81
2023/01/24 00:53:56;;;;;;;3.70;2.20;;;;;;;16.60;51.76;103981.16;4834170;29;20549;-82
2023/01/24 00:56:22;;;;;;;3.47;2.30;;;;;;;16.61;51.81;103985.56;4867513;29;20033;-83
2023/01/24 00:58:47;;;;;;;2.45;2.25;;;;;;;16.60;51.86;103978.56;4851402;29;20124;-82
2023/01/24 01:01:12;;;;;;;2.65;2.22;;;;;;;16.61;51.84;103982.03;4852040;29;20042;-82
2023/01/24 01:03:38;;;;;;;2.88;2.30;;;;;;;16.60;51.72;103981.16;4834888;29;20492;-81
2023/01/24 01:06:06;;;;;;;2.50;2.30;;;;;;;16.61;51.81;103982.03;4834603;29;20058;-81
2023/01/24 01:08:32;;;;;;;2.40;2.10;;;;;;;16.59;51.70;103979.41;4865036;29;20075;-82
2023/01/24 01:10:58;;;;;;;3.63;2.00;;;;;;;16.59;51.86;103982.00;4865109;29;20075;-82
2023/01/24 01:13:24;;;;;;;2.50;2.30;;;;;;;16.59;51.83;103982.00;4849971;29;20064;-81
2023/01/24 01:15:50;;;;;;;2.40;2.20;;;;;;;16.59;51.64;103981.09;4864427;29;20072;-81
2023/01/24 01:18:15;;;;;;;2.75;2.20;;;;;;;16.57;51.62;103974.94;4849693;29;20512;-82
2023/01/24 01:20:41;;;;;;;2.60;2.20;;;;;;;16.57;51.78;103974.94;4864955;29;20041;-82
2023/01/24 01:23:06;;;;;;;2.97;2.13;;;;;;;16.58;51.76;103982.81;4834463;29;20094;-82
2023/01/24 01:25:32;;;;;;;2.50;2.30;;;;;;;16.58;51.70;103984.53;4850154;29;20045;-83
2023/01/24 01:27:57;;;;;;;4.00;2.28;;;;;;;16.58;51.87;103974.13;4851120;29;20037;-83
2023/01/24 01:30:23;;;;;;;3.15;2.40;;;;;;;16.56;51.76;103979.25;4850638;29;20397;-81
2023/01/24 01:32:48;;;;;;;2.55;2.20;;;;;;;16.57;51.75;103980.13;4850819;29;20041;-81
2023/01/24 01:35:14;;;;;;;2.60;2.33;;;;;;;16.56;51.72;103981.84;4864979;29;20098;-81
2023/01/24 01:37:39;;;;;;;2.47;2.20;;;;;;;16.56;51.58;103980.97;4865461;29;20033;-82
2023/01/24 01:40:05;;;;;;;2.45;2.00;;;;;;;16.55;51.81;103984.38;4835530;29;20488;-81
2023/01/24 01:42:44;;;;;;;2.40;2.10;;;;;;;16.55;51.57;103976.56;4875250;29;20397;-84
2023/01/24 01:45:38;;;;;;;2.50;2.30;;;;;;;16.55;51.69;103982.69;4880220;29;20043;-80
2023/01/24 01:48:25;;;;;;;2.45;2.25;;;;;;;16.54;51.51;103977.41;4858036;29;20037;-82
2023/01/24 01:51:00;;;;;;;3.28;2.53;;;;;;;16.54;51.61;103969.59;4879406;29;20049;-83
2023/01/24 01:53:31;;;;;;;2.33;2.10;;;;;;;16.54;51.54;103980.88;4876215;29;20063;-82
2023/01/24 01:56:06;;;;;;;2.17;1.98;;;;;;;16.53;51.63;103980.84;4871103;29;20056;-82
2023/01/24 01:58:33;;;;;;;2.40;2.20;;;;;;;16.54;51.62;103987.81;4869219;29;20038;-82
2023/01/24 02:00:58;;;;;;;2.55;2.30;;;;;;;16.52;51.64;103977.31;4870167;29;20052;-82
2023/01/24 02:03:38;;;;;;;2.55;2.20;;;;;;;16.51;51.56;103980.75;4871493;29;20037;-82
2023/01/24 02:06:13;;;;;;;2.65;2.30;;;;;;;16.52;51.54;103979.03;4873523;29;20070;-82
2023/01/24 02:08:40;;;;;;;2.70;2.30;;;;;;;16.52;51.55;103977.31;4882035;29;20038;-83
2023/01/24 02:16:02;;;;;;;2.20;2.00;;;;;;;16.51;51.67;103972.09;4874902;29;20093;-82
2023/01/24 02:16:38;;;;;;;3.22;2.50;;;;;;;16.51;51.58;103969.47;4876385;29;20150;-82
2023/01/24 02:19:04;;;;;;;2.75;2.55;;;;;;;16.50;51.56;103960.78;4841294;29;20049;-80
2023/01/24 02:21:31;;;;;;;2.88;2.20;;;;;;;16.50;51.61;103962.50;4854661;29;20080;-81
2023/01/24 02:24:11;;;;;;;2.78;2.13;;;;;;;16.49;51.45;103964.19;4854353;29;20045;-82
2023/01/24 02:26:38;;;;;;;2.40;2.20;;;;;;;16.50;51.48;103965.09;4870148;29;20044;-81
2023/01/24 02:29:10;;;;;;;2.40;2.20;;;;;;;16.48;51.38;103965.00;4870251;29;20041;-81
2023/01/24 02:32:12;;;;;;;2.47;2.25;;;;;;;16.49;51.57;103966.81;4869832;29;20040;-82
2023/01/24 02:34:38;;;;;;;2.67;2.08;;;;;;;16.48;51.43;103965.00;4831995;29;20046;-82
2023/01/24 02:37:11;;;;;;;3.00;2.58;;;;;;;16.47;51.56;103960.66;4843244;29;20203;-82
2023/01/24 02:40:18;;;;;;;2.15;1.95;;;;;;;16.48;51.67;103964.13;4868937;29;20033;-81
2023/01/24 02:42:45;;;;;;;2.30;2.10;;;;;;;16.47;51.38;103968.44;4864898;29;20049;-83
2023/01/24 02:45:23;;;;;;;2.53;2.20;;;;;;;16.46;51.29;103958.84;4853793;29;20041;-82
2023/01/24 02:47:51;;;;;;;3.78;2.30;;;;;;;16.47;51.45;103959.75;4872118;29;20037;-84
2023/01/24 02:50:19;;;;;;;2.50;2.30;;;;;;;16.45;51.57;103957.97;4870023;29;20033;-81
2023/01/24 02:55:29;;;;;;;2.40;2.20;;;;;;;16.45;51.56;103965.75;4857403;29;20044;-81
2023/01/24 02:58:08;;;;;;;2.42;2.22;;;;;;;16.44;51.55;103964.00;4872463;29;20132;-83
2023/01/24 03:00:39;;;;;;;2.67;2.47;;;;;;;16.45;51.51;103963.16;4849403;29;20487;-83
2023/01/24 03:03:07;;;;;;;3.15;2.60;;;;;;;16.45;51.36;103964.88;4874707;29;20037;-82
2023/01/24 03:05:39;;;;;;;2.63;2.30;;;;;;;16.44;51.33;103964.00;4876752;29;20042;-82
2023/01/24 03:08:07;;;;;;;2.50;2.30;;;;;;;16.44;51.59;103960.53;4878494;29;20041;-83
2023/01/24 03:10:33;;;;;;;2.53;2.33;;;;;;;16.43;51.61;103957.00;4874995;29;20041;-83
2023/01/24 03:34:50;;;;;;;;;;;;;;;16.41;51.24;103947.38;4853957;29;20197;-81
2023/01/24 03:40:10;;;;;;;2.22;2.03;;;;;;;16.40;51.34;103949.09;4868328;29;20082;-82
2023/01/24 03:42:47;;;;;;;2.58;2.33;;;;;;;16.40;51.57;103949.09;4867562;29;20128;-81
2023/01/24 03:45:20;;;;;;;2.17;1.98;;;;;;;16.40;51.31;103953.41;4836872;29;20094;-77
2023/01/24 03:47:54;;;;;;;2.67;2.42;;;;;;;16.41;51.25;103948.25;4864207;29;20037;-77
2023/01/24 03:53:09;;;;;;;2.10;1.90;;;;;;;16.41;51.23;103955.16;4866258;29;20565;-78
2023/01/24 03:55:35;;;;;;;3.55;2.10;;;;;;;16.40;51.42;103945.59;4865947;29;20060;-78
2023/01/24 03:58:01;;;;;;;2.33;2.00;;;;;;;16.41;51.46;103949.97;4849112;29;20420;-77
2023/01/24 04:00:26;;;;;;;2.40;2.20;;;;;;;16.41;51.32;103947.38;4863987;29;20041;-78
2023/01/24 04:02:53;;;;;;;2.28;2.08;;;;;;;16.41;51.54;103944.78;4864067;29;20121;-75
2023/01/24 04:05:20;;;;;;;2.63;2.00;;;;;;;16.40;51.35;103946.47;4848198;29;20097;-76
2023/01/24 04:07:46;;;;;;;2.15;1.90;;;;;;;16.40;51.21;103945.59;4848121;29;20404;-75
2023/01/24 04:10:13;;;;;;;2.45;2.10;;;;;;;16.41;51.35;103948.25;4863639;29;20029;-75
2023/01/24 04:12:39;;;;;;;2.10;1.90;;;;;;;16.40;51.22;103946.47;4848133;29;20067;-78
2023/01/24 04:15:04;;;;;;;2.00;1.80;;;;;;;16.41;51.28;103950.84;4848412;29;20057;-77
2023/01/24 04:17:30;;;;;;;1.92;1.73;;;;;;;16.41;51.36;103952.56;4863868;29;20044;-78
2023/01/24 04:19:55;;;;;;;2.33;1.90;;;;;;;16.40;51.10;103945.59;4817917;29;20048;-78
2023/01/24 04:22:20;;;;;;;2.45;2.13;;;;;;;16.40;51.56;103954.28;4848483;29;20051;-77
2023/01/24 04:24:46;;;;;;;2.40;2.10;;;;;;;16.40;51.35;103953.41;4847984;29;20041;-79
2023/01/24 04:27:11;;;;;;;2.45;1.80;;;;;;;16.39;51.37;103957.69;4863922;29;20066;-78
2023/01/24 04:29:37;;;;;;;2.33;2.13;;;;;;;16.38;51.40;103955.91;4864693;29;20037;-77
2023/01/24 04:32:02;;;;;;;2.03;1.83;;;;;;;16.38;51.35;103960.25;4832958;29;20045;-77
2023/01/24 04:34:28;;;;;;;1.90;1.70;;;;;;;16.38;51.17;103963.72;4848186;29;20079;-78
2023/01/24 04:36:53;;;;;;;2.10;1.90;;;;;;;16.38;51.36;103962.84;4863529;29;20201;-77
2023/01/24 04:39:19;;;;;;;2.05;1.90;;;;;;;16.38;51.23;103968.03;4865542;29;20041;-76
2023/01/24 04:41:45;;;;;;;2.35;1.95;;;;;;;16.38;51.34;103965.44;4870451;29;20120;-76
2023/01/24 04:44:10;;;;;;;2.30;2.10;;;;;;;16.37;51.17;103961.03;4871297;29;20041;-76
2023/01/24 04:46:35;;;;;;;2.33;1.90;;;;;;;16.36;51.33;103961.88;4847278;29;20041;-83
2023/01/24 04:49:01;;;;;;;2.45;1.90;;;;;;;16.36;51.30;103965.34;4865014;29;20069;-83
2023/01/24 04:51:26;;;;;;;2.38;1.98;;;;;;;16.36;51.36;103959.28;4860968;29;20076;-82
2023/01/24 04:53:51;;;;;;;1.88;1.75;;;;;;;16.36;51.51;103965.34;4856889;29;20048;-82
2023/01/24 04:56:17;;;;;;;2.10;1.90;;;;;;;16.36;51.33;103967.06;4870998;29;20481;-81
2023/01/24 04:58:42;;;;;;;1.73;1.63;;;;;;;16.36;51.42;103956.69;4868534;29;20100;-81
2023/01/24 05:01:07;;;;;;;2.10;1.85;;;;;;;16.36;51.26;103965.34;4868729;29;20102;-82
2023/01/24 05:03:33;;;;;;;2.33;2.05;;;;;;;16.36;51.05;103964.47;4868757;29;20125;-83
2023/01/24 05:05:58;;;;;;;2.10;1.80;;;;;;;16.36;51.30;103960.16;4853811;29;20519;-80
2023/01/24 05:08:24;;;;;;;2.17;1.83;;;;;;;16.37;51.51;103971.44;4851639;29;20114;-82
2023/01/24 05:10:49;;;;;;;2.03;1.85;;;;;;;16.36;51.28;103970.56;4866903;29;20038;-82
2023/01/24 05:13:14;;;;;;;1.98;1.77;;;;;;;16.36;51.28;103975.75;4835729;29;20046;-82
2023/01/24 05:15:50;;;;;;;2.05;1.85;;;;;;;16.37;51.26;103982.72;4850823;29;20041;-82
2023/01/24 05:18:17;;;;;;;2.20;1.73;;;;;;;16.37;51.29;103984.44;4850778;29;20085;-81
2023/01/24 05:20:43;;;;;;;2.40;2.00;;;;;;;16.36;51.32;103983.56;4850009;29;20048;-82
2023/01/24 05:23:08;;;;;;;1.90;1.70;;;;;;;16.37;51.00;103984.44;4865725;29;20037;-82
2023/01/24 05:25:34;;;;;;;2.17;1.70;;;;;;;16.36;51.17;103980.94;4865641;29;20117;-82
2023/01/24 05:27:59;;;;;;;2.50;1.90;;;;;;;16.37;51.25;103984.44;4849782;29;20133;-82
2023/01/24 05:30:24;;;;;;;2.00;1.70;;;;;;;16.37;51.25;103989.63;4864563;29;20429;-81
2023/01/24 05:32:50;;;;;;;1.98;1.77;;;;;;;16.36;51.32;103986.16;4849501;29;20037;-82
2023/01/24 05:35:15;;;;;;;2.25;1.80;;;;;;;16.37;51.41;103985.31;4865128;29;20049;-82
2023/01/24 05:37:41;;;;;;;2.10;1.90;;;;;;;16.36;51.34;103985.28;4866514;29;20048;-82
2023/01/24 05:40:07;;;;;;;1.90;1.67;;;;;;;16.36;51.18;103982.66;4866699;29;20029;-77
2023/01/24 05:42:35;;;;;;;2.40;1.75;;;;;;;16.36;51.36;103993.94;4862492;29;20056;-76
2023/01/24 05:45:01;;;;;;;1.90;1.70;;;;;;;16.36;51.24;103978.34;4816543;29;20042;-76
2023/01/24 05:47:26;;;;;;;1.90;1.65;;;;;;;16.36;51.06;103980.06;4846645;29;20049;-77
2023/01/24 05:49:52;;;;;;;1.92;1.70;;;;;;;16.35;51.10;103979.19;4846684;29;20456;-76
2023/01/24 05:52:21;;;;;;;1.52;1.42;;;;;;;16.36;51.34;103982.66;4846481;29;20068;-78
2023/01/24 05:54:50;;;;;;;2.42;1.98;;;;;;;16.36;51.04;103980.06;4831936;29;20496;-78
2023/01/24 05:57:16;;;;;;;1.70;1.60;;;;;;;16.35;51.27;103984.38;4863321;29;20560;-78
2023/01/24 05:59:41;;;;;;;2.17;1.42;;;;;;;16.36;51.20;103985.28;4863029;29;20120;-76
2023/01/24 06:02:06;;;;;;;2.03;1.80;;;;;;;16.35;51.21;103986.97;4861958;29;20392;-76
2023/01/24 06:04:32;;;;;;;2.20;1.60;;;;;;;16.36;51.26;103995.66;4861884;29;20072;-74
2023/01/24 06:06:57;;;;;;;6.55;3.53;;;;;;;16.36;51.22;103996.53;4863318;29;20094;-78
2023/01/24 06:09:23;;;;;;;17.08;7.80;;;;;;;16.37;51.11;103997.44;4846758;29;20038;-77
2023/01/24 06:11:49;;;;;;;19.45;7.30;;;;;;;16.37;51.26;104000.03;4861560;29;20128;-79
2023/01/24 06:14:15;;;;;;;20.13;7.68;;;;;;;16.37;51.29;103994.84;4861635;29;20530;-78
2023/01/24 06:16:43;;;;;;;18.95;7.35;;;;;;;16.37;51.32;103997.44;4862015;29;20132;-79
2023/01/24 06:19:10;;;;;;;16.95;7.53;;;;;;;16.36;51.29;103996.53;4861469;29;20037;-78
2023/01/24 06:22:03;;;;;;;19.48;7.60;;;;;;;16.36;51.38;103993.06;4861438;29;20128;-78
2023/01/24 06:24:28;;;;;;;14.68;6.63;;;;;;;16.36;51.10;103995.66;4861239;29;20110;-78
2023/01/24 06:26:54;;;;;;;17.40;7.35;;;;;;;16.37;51.11;103997.44;4845800;29;20110;-77
2023/01/24 06:29:21;;;;;;;13.65;6.93;;;;;;;16.37;51.34;103997.44;4831151;29;20044;-79
2023/01/24 06:31:46;;;;;;;16.42;6.97;;;;;;;16.36;51.21;103996.53;4846476;29;20476;-78
2023/01/24 06:34:30;;;;;;;20.98;6.78;;;;;;;16.37;51.31;103987.03;4861252;29;20041;-79
2023/01/24 06:37:17;;;;;;;13.90;6.10;;;;;;;16.37;51.26;103998.31;4861521;29;20034;-80
2023/01/24 06:39:52;;;;;;;13.80;6.05;;;;;;;16.36;51.36;103996.53;4862492;29;20029;-80
2023/01/24 06:42:19;;;;;;;17.85;7.13;;;;;;;16.46;51.59;103997.84;4862988;29;20041;-77
2023/01/24 06:44:46;;;;;;;21.10;7.72;;;;;;;16.56;51.57;104005.25;4861518;29;20046;-80
2023/01/24 06:47:11;;;;;;;18.45;6.95;;;;;;;16.62;51.54;104007.25;4847086;29;20710;-78
2023/01/24 06:49:38;;;;;;;14.25;7.22;;;;;;;16.65;51.67;104009.97;4862706;29;20488;-78
2023/01/24 06:52:03;;;;;;;13.55;6.53;;;;;;;16.67;51.62;104005.72;4847266;29;20045;-79
2023/01/24 06:54:29;;;;;;;17.02;6.93;;;;;;;16.67;51.66;104006.59;4847450;29;20129;-79
2023/01/24 06:56:54;;;;;;;15.40;6.65;;;;;;;16.69;51.66;104009.28;4862380;29;20397;-80
2023/01/24 06:59:22;;;;;;;16.05;6.43;;;;;;;16.73;51.68;104010.31;4861957;29;20110;-80
2023/01/24 07:01:48;;;;;;;14.02;6.50;;;;;;;16.75;51.74;104011.28;4847046;29;20061;-78
2023/01/24 07:04:14;;;;;;;14.45;6.60;;;;;;;16.76;51.72;104010.44;4845832;29;20041;-80
2023/01/24 07:06:39;;;;;;;14.88;6.75;;;;;;;16.78;51.52;104008.81;4860781;29;20040;-78
2023/01/24 07:09:05;;;;;;;13.63;6.40;;;;;;;16.79;51.47;104015.81;4845701;29;20104;-78
2023/01/24 07:11:30;;;;;;;13.23;5.93;;;;;;;16.80;51.33;104017.59;4845570;29;20466;-78
2023/01/24 07:13:56;;;;;;;15.32;6.25;;;;;;;16.81;51.51;104017.69;4830047;29;20470;-79
2023/01/24 07:16:21;;;;;;;13.40;6.22;;;;;;;16.82;51.54;104016.84;4830369;29;20413;-79
2023/01/24 07:18:47;;;;;;;13.73;5.80;;;;;;;16.82;51.35;104019.44;4845682;29;20104;-79
2023/01/24 07:21:13;;;;;;;12.75;6.13;;;;;;;16.84;51.35;104027.31;4861267;29;20426;-80
2023/01/24 07:23:43;;;;;;;12.43;5.72;;;;;;;16.83;51.52;104026.44;4845424;29;20066;-78
2023/01/24 07:26:10;;;;;;;11.35;6.03;;;;;;;16.84;51.30;104036.00;4861142;29;20045;-78
2023/01/24 07:28:36;;;;;;;11.10;5.78;;;;;;;16.83;51.52;104031.66;4863363;29;20045;-77
2023/01/24 07:31:02;;;;;;;11.45;5.35;;;;;;;16.84;51.53;104033.41;4851672;29;20557;-77
2023/01/24 07:33:28;;;;;;;11.13;5.53;;;;;;;16.84;51.50;104033.41;4869141;29;20515;-77
2023/01/24 07:35:53;;;;;;;9.73;5.20;;;;;;;16.84;51.35;104036.00;4870218;29;20045;-77
2023/01/24 07:38:19;;;;;;;9.25;5.10;;;;;;;16.85;51.33;104039.50;4855559;29;20041;-77
2023/01/24 07:40:44;;;;;;;7.53;4.60;;;;;;;16.85;51.04;104037.81;4856074;29;20042;-77
2023/01/24 07:43:10;;;;;;;9.57;4.88;;;;;;;16.85;51.29;104044.69;4857278;29;20045;-77
2023/01/24 07:45:37;;;;;;;10.23;5.20;;;;;;;16.86;51.36;104039.56;4859507;29;20136;-78
2023/01/24 07:48:04;;;;;;;9.85;5.30;;;;;;;16.85;51.08;104040.41;4872278;29;20074;-77
2023/01/24 07:50:31;;;;;;;9.38;4.78;;;;;;;16.87;51.20;104040.44;4872872;29;20053;-78
2023/01/24 07:52:59;;;;;;;9.27;5.60;;;;;;;16.86;51.15;104046.50;4857047;29;20109;-78
2023/01/24 07:55:26;;;;;;;8.73;5.07;;;;;;;16.86;51.18;104041.28;4870501;29;20033;-78
2023/01/24 07:57:56;;;;;;;9.55;5.10;;;;;;;16.87;50.87;104037.84;4870503;29;20151;-77
2023/01/24 08:00:22;;;;;;;8.57;4.82;;;;;;;16.87;51.15;104040.44;4865591;29;20053;-77
2023/01/24 08:02:48;;;;;;;6.70;4.00;;;;;;;16.88;51.06;104043.97;4855104;29;20033;-78
2023/01/24 08:05:13;;;;;;;7.10;4.47;;;;;;;16.90;50.91;104048.41;4870281;29;20037;-78
2023/01/24 08:07:39;;;;;;;7.35;4.22;;;;;;;16.88;51.09;104052.66;4839002;29;20054;-78
2023/01/24 08:10:05;;;;;;;8.00;4.30;;;;;;;16.89;50.94;104057.03;4841838;29;20037;-77
2023/01/24 08:12:30;;;;;;;7.57;4.65;;;;;;;16.88;50.90;104055.25;4856350;29;20419;-78
2023/01/24 08:14:56;;;;;;;6.15;4.10;;;;;;;16.90;50.63;104060.50;4838337;29;20060;-78
2023/01/24 08:17:21;;;;;;;7.70;3.95;;;;;;;16.91;50.80;104059.69;4868165;29;20507;-78
2023/01/24 08:19:47;;;;;;;6.82;3.80;;;;;;;16.90;50.58;104058.81;4868110;29;20045;-79
2023/01/24 08:22:12;;;;;;;6.65;4.10;;;;;;;16.91;50.88;104068.38;4852593;29;20482;-78
2023/01/24 08:24:37;;;;;;;6.90;4.50;;;;;;;16.91;50.54;104071.00;4851243;29;20046;-78
2023/01/24 08:27:03;;;;;;;6.53;3.88;;;;;;;16.91;50.50;104065.78;4851248;29;20137;-79
2023/01/24 08:29:28;;;;;;;5.70;3.70;;;;;;;16.91;50.65;104068.38;4835764;29;20053;-78
2023/01/24 08:31:54;;;;;;;5.90;3.78;;;;;;;16.93;50.68;104073.66;4850659;29;20072;-78
2023/01/24 08:34:19;;;;;;;5.68;3.72;;;;;;;16.92;50.55;104067.59;4834728;29;20080;-78
2023/01/24 08:36:45;;;;;;;6.82;3.90;;;;;;;16.92;50.42;104069.28;4834986;29;20072;-78
2023/01/24 08:39:10;;;;;;;5.20;3.75;;;;;;;16.93;50.52;104077.16;4849414;29;20097;-78
2023/01/24 08:41:36;;;;;;;6.13;3.90;;;;;;;16.94;50.64;104085.84;4848695;29;20070;-78
2023/01/24 08:44:02;;;;;;;4.72;3.60;;;;;;;16.93;50.49;104095.38;4864647;29;20041;-78
2023/01/24 08:46:28;;;;;;;6.35;3.80;;;;;;;16.95;50.57;104088.50;4848702;29;20037;-79
2023/01/24 08:48:54;;;;;;;5.70;3.63;;;;;;;16.95;50.30;104087.63;4848898;29;20045;-79
2023/01/24 08:51:19;;;;;;;5.40;3.20;;;;;;;16.94;50.39;104089.34;4848575;29;20090;-78
2023/01/24 08:53:45;;;;;;;6.15;3.58;;;;;;;16.95;50.39;104085.91;4847886;29;20124;-78
2023/01/24 08:56:10;;;;;;;5.82;3.30;;;;;;;16.95;50.16;104093.72;4832336;29;20033;-79
2023/01/24 08:58:36;;;;;;;5.28;3.53;;;;;;;16.96;50.50;104102.41;4848193;29;20511;-78
2023/01/24 09:01:09;;;;;;;5.82;3.33;;;;;;;16.95;50.26;104096.31;4848597;29;20444;-79
2023/01/24 09:03:35;;;;;;;4.80;3.35;;;;;;;16.96;50.31;104100.72;4863479;29;20101;-79
2023/01/24 09:06:01;;;;;;;5.20;3.28;;;;;;;16.96;50.31;104105.00;4864555;29;20034;-79
2023/01/24 09:08:27;;;;;;;4.05;3.03;;;;;;;16.97;50.29;104102.50;4832298;29;20033;-79
2023/01/24 09:10:52;;;;;;;4.70;3.47;;;;;;;16.97;50.26;104101.59;4864410;29;20037;-78
2023/01/24 09:13:18;;;;;;;4.85;3.50;;;;;;;16.97;50.12;104105.09;4862836;29;20114;-78
2023/01/24 09:15:44;;;;;;;4.05;3.00;;;;;;;16.97;50.20;104105.09;4862880;29;20056;-78
2023/01/24 09:18:12;;;;;;;5.07;3.25;;;;;;;16.98;50.12;104109.47;4847373;29;20049;-79
2023/01/24 09:20:37;;;;;;;4.95;3.33;;;;;;;16.97;50.10;104099.88;4831909;29;20385;-79
2023/01/24 09:23:12;;;;;;;4.13;3.03;;;;;;;16.99;50.06;104107.78;4847568;29;20041;-78
2023/01/24 09:25:38;;;;;;;3.47;2.78;;;;;;;16.98;50.06;104096.44;4862414;29;20029;-77
2023/01/24 09:28:04;;;;;;;5.03;3.00;;;;;;;16.98;50.19;104104.25;4847143;29;20041;-77
2023/01/24 09:30:31;;;;;;;4.32;3.03;;;;;;;16.98;50.16;104101.66;4862496;29;20133;-78
2023/01/24 09:32:56;;;;;;;4.63;2.88;;;;;;;16.99;50.22;104107.78;4862819;29;20120;-77
2023/01/24 09:35:21;;;;;;;4.78;3.17;;;;;;;16.99;49.98;104108.66;4862406;29;20041;-78
2023/01/24 09:37:47;;;;;;;4.00;2.80;;;;;;;17.00;50.03;104105.22;4831905;29;20137;-79
2023/01/24 09:40:27;;;;;;;3.58;2.63;;;;;;;16.99;49.97;104106.06;4816731;29;20041;-79
2023/01/24 09:43:12;;;;;;;4.63;3.28;;;;;;;17.00;49.83;104106.94;4861836;29;20045;-79
2023/01/24 09:45:49;;;;;;;3.03;2.40;;;;;;;17.00;49.94;104107.81;4863663;29;20042;-79
2023/01/24 09:48:15;;;;;;;3.58;2.95;;;;;;;17.00;49.78;104110.41;4862037;29;20041;-79
2023/01/24 09:50:49;;;;;;;3.78;2.80;;;;;;;17.01;49.86;104098.31;4861812;29;20046;-78
2023/01/24 09:53:23;;;;;;;3.75;2.70;;;;;;;17.02;49.80;104102.69;4862071;29;20037;-78
2023/01/24 09:55:49;;;;;;;3.38;2.47;;;;;;;17.02;49.85;104107.88;4862225;29;20029;-78
2023/01/24 09:58:26;;;;;;;3.33;2.60;;;;;;;17.02;49.87;104115.69;4862240;29;20033;-78
2023/01/24 10:00:52;;;;;;;3.72;2.72;;;;;;;17.02;49.82;104116.56;4862045;29;20037;-78
2023/01/24 10:03:20;;;;;;;3.13;2.65;;;;;;;17.02;49.93;104116.56;4861751;29;20048;-78
2023/01/24 10:05:52;;;;;;;3.17;2.40;;;;;;;17.03;50.07;104117.50;4861605;29;20092;-78
2023/01/24 10:08:26;;;;;;;4.13;3.10;;;;;;;17.03;49.70;104118.38;4863424;29;20124;-78
2023/01/24 10:11:15;;;;;;;3.95;2.50;;;;;;;17.04;49.58;104120.16;4862076;29;20033;-78
2023/01/24 10:13:58;;;;;;;3.65;2.78;;;;;;;17.04;49.58;104122.75;4861503;29;20050;-79
2023/01/24 10:17:05;;;;;;;3.38;2.53;;;;;;;17.04;49.75;104119.25;4862074;29;20033;-79
2023/01/24 10:20:08;;;;;;;3.22;2.60;;;;;;;17.06;49.51;104122.81;4861552;29;20049;-79
2023/01/24 10:22:48;;;;;;;3.33;2.60;;;;;;;17.06;49.61;104122.81;4861578;29;20067;-77
2023/01/24 10:25:45;;;;;;;3.22;2.50;;;;;;;17.06;49.54;104122.81;4861474;29;20067;-79
2023/01/24 10:28:20;;;;;;;4.13;2.60;;;;;;;17.05;49.55;104121.06;4862921;29;20117;-79
2023/01/24 10:31:12;;;;;;;3.95;2.47;;;;;;;17.05;49.45;104119.34;4866057;29;20038;-78
2023/01/24 10:33:44;;;;;;;2.90;2.28;;;;;;;17.05;49.61;104106.34;4860992;29;20067;-78
2023/01/24 10:36:24;;;;;;;4.33;2.40;;;;;;;17.07;49.52;104106.38;4869549;29;20030;-77
2023/01/24 10:38:49;;;;;;;3.10;2.50;;;;;;;17.06;49.51;104102.88;4870560;29;20041;-77
2023/01/24 10:41:21;;;;;;;3.67;2.47;;;;;;;17.07;49.39;104101.16;4838638;29;20044;-79
2023/01/24 10:43:59;;;;;;;3.15;2.40;;;;;;;17.08;49.57;104100.38;4866821;29;20049;-77
2023/01/24 10:47:02;;;;;;;2.97;2.28;;;;;;;17.08;49.43;104104.69;4865852;29;20048;-77
2023/01/24 10:49:31;;;;;;;2.70;2.20;;;;;;;17.08;49.50;104095.16;4865768;29;20041;-78
2023/01/24 10:52:16;;;;;;;2.97;2.40;;;;;;;17.09;49.29;104099.53;4865199;29;20496;-78
2023/01/24 10:54:56;;;;;;;2.80;2.30;;;;;;;17.09;49.40;104093.44;4865659;29;20045;-78
2023/01/24 10:57:24;;;;;;;3.75;2.42;;;;;;;17.09;49.35;104096.94;4864809;29;20042;-78
2023/01/24 10:59:51;;;;;;;2.85;2.28;;;;;;;17.09;49.08;104089.13;4864363;29;20049;-78
2023/01/24 11:02:23;;;;;;;3.38;2.35;;;;;;;17.09;49.51;104090.84;4864249;29;20037;-78
2023/01/24 11:04:59;;;;;;;3.20;2.30;;;;;;;17.10;49.34;104087.44;4863902;29;20046;-79
2023/01/24 11:07:52;;;;;;;2.92;2.35;;;;;;;17.10;49.45;104087.44;4864145;29;20120;-78
2023/01/24 11:10:24;;;;;;;2.83;2.10;;;;;;;17.09;49.14;104083.91;4857839;29;20489;-77
2023/01/24 11:13:00;;;;;;;2.70;2.30;;;;;;;17.10;49.40;104090.91;4862982;29;20049;-79
2023/01/24 11:15:33;;;;;;;2.97;2.10;;;;;;;17.11;49.03;104084.00;4862956;29;20520;-79
2023/01/24 11:18:19;;;;;;;2.65;2.03;;;;;;;17.11;49.21;104089.19;4863861;29;20046;-78
2023/01/24 11:20:45;;;;;;;2.40;2.03;;;;;;;17.10;49.29;104083.09;4866074;29;20044;-79
2023/01/24 11:23:11;;;;;;;2.33;2.05;;;;;;;17.11;49.12;104084.00;4850854;29;20132;-77
2023/01/24 11:25:54;;;;;;;2.75;2.10;;;;;;;17.11;49.36;104081.41;4865649;29;20549;-79
2023/01/24 11:28:27;;;;;;;3.58;2.20;;;;;;;17.12;48.99;104085.78;4865066;29;20037;-79
2023/01/24 11:30:55;;;;;;;2.67;2.00;;;;;;;17.12;49.16;104080.59;4866626;29;20033;-79
2023/01/24 11:33:45;;;;;;;2.90;2.08;;;;;;;17.12;49.18;104075.38;4866626;29;20041;-79
2023/01/24 11:36:35;;;;;;;2.20;2.00;;;;;;;17.13;49.17;104066.75;4866649;29;20049;-78
2023/01/24 11:39:11;;;;;;;2.90;2.33;;;;;;;17.12;49.06;104059.78;4866433;29;20557;-79
2023/01/24 11:41:58;;;;;;;2.83;2.08;;;;;;;17.12;48.98;104063.25;4864946;29;20481;-78
2023/01/24 11:44:31;;;;;;;2.97;2.05;;;;;;;17.13;48.98;104061.53;4864752;29;20037;-79
2023/01/24 11:47:18;;;;;;;2.90;2.20;;;;;;;17.12;48.93;104059.78;4864386;29;20065;-79
2023/01/24 11:50:16;;;;;;;2.60;2.10;;;;;;;17.12;48.95;104057.16;4864715;29;20101;-79
2023/01/24 11:53:20;;;;;;;2.38;2.03;;;;;;;17.13;49.06;104062.41;4864370;29;20044;-78
2023/01/24 11:56:05;;;;;;;2.15;1.90;;;;;;;17.14;49.04;104051.19;4865665;29;20033;-79
2023/01/24 11:58:44;;;;;;;2.10;1.80;;;;;;;17.14;49.05;104042.50;4864359;29;20392;-77
2023/01/24 12:01:44;;;;;;;2.45;2.10;;;;;;;17.14;49.04;104042.50;4864011;29;20381;-79
2023/01/24 12:04:51;;;;;;;2.55;2.20;;;;;;;17.14;48.81;104040.78;4865338;29;20033;-79
2023/01/24 12:07:36;;;;;;;2.30;2.00;;;;;;;17.14;49.09;104038.19;4863937;29;20174;-77
2023/01/24 12:10:23;;;;;;;2.63;1.95;;;;;;;17.15;48.83;104033.88;4863511;29;20182;-78